NATURA VA

 INFORMACIÓN METAR y TAF
METAR FOR LELL
ADDS - METARS form results

(2235 UTC 17 June 2019)
Data provider http://aviationweather.gov/metar/data/
 
METAR text: LELL 172230Z AUTO 28004KT 9999 NCD 18/11 Q1016
Conditions at: LELL (SABADELL , ES) observed 2230 UTC 17 June 2019
Temperature: 18.0°C (64°F)
Dewpoint: 11.0°C (52°F) [RH = 64%]
Pressure (altimeter): 30.00 inches Hg (1016.0 mb)
Winds: from the W (280 degrees) at 5 MPH (4 knots; 2.1 m/s)
Visibility: 6 or more miles (10+ km)
Ceiling: at least 12,000 feet AGL
Clouds: sky clear below 12,000 feet AGL
Weather: no significant weather observed at this time

METAR text: LELL 172200Z AUTO 29004KT 9999 NCD 19/11 Q1016
Conditions at: LELL (SABADELL , ES) observed 2200 UTC 17 June 2019
Temperature: 19.0°C (66°F)
Dewpoint: 11.0°C (52°F) [RH = 60%]
Pressure (altimeter): 30.00 inches Hg (1016.0 mb)
Winds: from the WNW (290 degrees) at 5 MPH (4 knots; 2.1 m/s)
Visibility: 6 or more miles (10+ km)
Ceiling: at least 12,000 feet AGL
Clouds: sky clear below 12,000 feet AGL
Weather: no significant weather observed at this time

Forecast for: LELL (SABADELL , ES)
Text: TAF LELL 171400Z 1715/1815 18010KT 9999 FEW040 TX29/1813Z TN15/1805Z
Forecast period: 1500 to 1800 UTC 17 June 2019
Forecast type: FROM: standard forecast or significant change
Winds: from the S (180 degrees) at 12 MPH (10 knots; 5.1 m/s)
Visibility: 6 or more miles 10+ km)
Ceiling: at least 12,000 feet AGL
Clouds: few clouds at 4000 feet AGL
Weather: no significant weather forecast for this period
Text: BECMG 1718/1720 27005KT
Forecast period: 1800 UTC 17 June 2019 to 1000 UTC 18 June 2019
Forecast type: BECOMING: Conditions expected to become as follows by 2000 UTC 17 June 2019
Winds: from the W (270 degrees) at 6 MPH (5 knots; 2.6 m/s)
Visibility: 6 or more miles 10+ km)
Ceiling: at least 12,000 feet AGL
Clouds: few clouds at 4000 feet AGL
Weather: no significant weather forecast for this period
Text: BECMG 1810/1812 20010KT
Forecast period: 1000 to 1500 UTC 18 June 2019
Forecast type: BECOMING: Conditions expected to become as follows by 1200 UTC 18 June 2019
Winds: from the SSW (200 degrees) at 12 MPH (10 knots; 5.1 m/s)
Visibility: 6 or more miles 10+ km)
Ceiling: at least 12,000 feet AGL
Clouds: few clouds at 4000 feet AGL
Weather: no significant weather forecast for this period

 MAPA DE AEROPUERTO

 INFORMACIÓN DE PISTA
Pista 13 Longitud 2953 ft Ancho 0 ft
Elevación 485 ft Umbral desplazado 0 ft Rumbo de pista 0
Pista 31 Longitud 2953 ft Ancho 0 ft
Elevación 445 ft Umbral desplazado 0 ft Rumbo de pista 0

 FRECUANCIAS DEL AEROPUERTO

 RADIO AYUDAS DEL AEROPUERTO
Tipo NDB Nombre Sabadell Frecuencia 367 KHZ



Powered by Virtual Airlines Manager [v2.6.2]